createdAt,value
2022-12-16T10:47:23.509Z,9.35
2022-12-16T10:54:49.322Z,10.93
2022-12-16T11:01:50.427Z,10.18
2022-12-16T11:08:55.726Z,9.52
2022-12-16T11:15:57.842Z,9.75
2022-12-16T11:22:58.825Z,8.80
2022-12-16T11:30:33.493Z,9.63
2022-12-16T11:37:34.357Z,10.10
2022-12-16T11:44:41.144Z,9.75
2022-12-16T11:51:43.635Z,9.65
2022-12-16T11:58:57.878Z,8.57
2022-12-16T12:06:17.161Z,9.05
2022-12-16T12:13:46.530Z,9.30
2022-12-16T12:21:06.392Z,8.00
2022-12-16T12:28:21.790Z,9.32
2022-12-16T12:35:47.522Z,8.95
2022-12-16T12:43:11.757Z,8.55
2022-12-16T12:50:24.613Z,9.15
2022-12-16T12:57:28.269Z,9.90
2022-12-16T13:04:36.812Z,10.98
2022-12-16T13:11:37.867Z,9.80
2022-12-16T13:18:44.406Z,9.02
2022-12-16T13:26:15.152Z,9.50
2022-12-16T13:33:24.758Z,9.80
2022-12-16T13:40:38.715Z,19.02
2022-12-16T13:47:53.405Z,14.60
2022-12-16T13:55:14.037Z,10.32
2022-12-16T14:02:32.814Z,10.55
2022-12-16T14:09:54.575Z,9.52
2022-12-16T14:17:17.455Z,10.05
2022-12-16T14:24:37.920Z,10.15
2022-12-16T14:31:52.788Z,10.75
2022-12-16T14:38:54.755Z,9.25
2022-12-16T14:45:57.552Z,9.38
2022-12-16T14:52:58.683Z,10.52
2022-12-16T14:59:59.440Z,10.25
2022-12-16T15:07:03.272Z,10.18
2022-12-16T15:14:06.780Z,9.20
2022-12-16T15:21:11.894Z,10.32
2022-12-16T15:28:14.331Z,8.23
2022-12-16T15:35:15.437Z,10.98
2022-12-16T15:42:16.404Z,19.52
2022-12-16T15:49:17.450Z,9.95
2022-12-16T15:56:18.987Z,10.50
2022-12-16T16:03:19.949Z,10.52
2022-12-16T16:10:36.861Z,9.57
2022-12-16T16:17:41.888Z,10.02
2022-12-16T16:24:46.256Z,10.30
2022-12-16T16:31:47.801Z,9.90
2022-12-16T16:38:48.585Z,10.50
2022-12-16T16:45:49.505Z,11.52
2022-12-16T16:52:51.297Z,11.65
2022-12-16T16:59:52.213Z,11.65
2022-12-16T17:06:53.138Z,11.25
2022-12-16T17:13:54.004Z,13.38
2022-12-16T17:20:54.990Z,14.00
2022-12-16T17:27:56.263Z,12.85
2022-12-16T17:34:57.275Z,13.13
2022-12-16T17:41:58.194Z,14.02
2022-12-16T17:48:59.033Z,13.95
2022-12-16T17:56:00.522Z,14.43
2022-12-16T18:03:01.696Z,14.68
2022-12-16T18:10:03.509Z,13.80
2022-12-16T18:17:04.604Z,13.98
2022-12-16T18:24:05.812Z,13.55
2022-12-16T18:31:07.859Z,12.75
2022-12-16T18:38:12.206Z,13.18
2022-12-16T18:45:15.736Z,14.10
2022-12-16T18:52:16.734Z,13.65
2022-12-16T18:59:18.070Z,12.68
2022-12-16T19:06:19.037Z,15.07
2022-12-16T19:13:20.039Z,16.40
2022-12-16T19:20:21.550Z,13.85
2022-12-16T19:27:22.560Z,13.52
2022-12-16T19:34:43.519Z,13.50
2022-12-16T19:41:45.574Z,12.18
2022-12-16T19:48:46.676Z,13.20
2022-12-16T19:55:47.585Z,12.38
2022-12-16T20:02:48.748Z,12.50
2022-12-16T20:09:49.788Z,12.95
2022-12-16T20:16:51.766Z,13.18
2022-12-16T20:23:53.723Z,16.40
2022-12-16T20:30:56.370Z,14.55
2022-12-16T20:37:57.665Z,14.73
2022-12-16T20:44:58.533Z,13.27
2022-12-16T20:52:00.503Z,12.90
2022-12-16T20:59:02.943Z,12.68
2022-12-16T21:06:04.383Z,13.05
2022-12-16T21:13:07.050Z,12.95
2022-12-16T21:20:08.722Z,15.57
2022-12-16T21:27:10.483Z,13.98
2022-12-16T21:34:11.859Z,16.70
2022-12-16T21:41:13.899Z,13.27
2022-12-16T21:48:14.886Z,12.90
2022-12-16T21:55:15.884Z,13.25
2022-12-16T22:02:16.789Z,15.02
2022-12-16T22:09:17.849Z,14.77
2022-12-16T22:16:19.378Z,15.68
2022-12-16T22:23:26.633Z,14.30
2022-12-16T22:30:29.691Z,14.77
2022-12-16T22:37:30.674Z,14.60
2022-12-16T22:44:32.209Z,14.57
2022-12-16T22:51:34.528Z,15.93
2022-12-16T22:58:35.353Z,15.85
2022-12-16T23:05:36.445Z,17.13
2022-12-16T23:12:37.493Z,15.00
2022-12-16T23:19:38.388Z,15.95
2022-12-16T23:26:39.812Z,14.80
2022-12-16T23:33:40.912Z,15.95
2022-12-16T23:40:41.758Z,15.90
2022-12-16T23:47:42.994Z,16.55
2022-12-16T23:54:45.778Z,15.88
